Catalina Duchess — WDD2049 — position and weather

sailwx.info

Track history (hours):
 
Tides and Currents Weather Stations Pressure Air Temp Water Temp Dewpoint Dewpoint Depression Visibility Wind Speed Wind Dir Waves Ship Positions

Catalina Duchess

Owner: CATALINA CLASSIC CRUISES, INC., SAN DIEGO, CA. More information available from US FCC via Universal Licensing System and Coast Guard Vessel Documentation Center.

Last reported at 2018-Feb-23 22:29 UTC. Time now 2018-Feb-25 04:08 UTC.
Position N 33°45' W 118°12'.

Length 31 m; draft 2.5 m.

Type: Ship. MMSI: 367110260.

Date/timePositionNaut miles runAvg speedWind from/ knotsBaromVisibWave heightAir tempDewpointWater temp
2018-Feb-23 22:29N 33°45' W 118°12'5 9.6
2018-Feb-23 22:00N 33°41' W 118°11'6 1.6
2018-Feb-23 18:20N 33°37' W 118°17'412.0
2018-Feb-23 18:00N 33°40' W 118°13'510.4
2018-Feb-23 17:30N 33°45' W 118°12'0 0.1
2018-Feb-23 17:00N 33°45' W 118°12'0 0.0
2018-Feb-23 16:30N 33°45' W 118°12'0 0.0
2018-Feb-22 19:28N 33°45' W 118°12'0 0.0
2018-Feb-22 19:01N 33°45' W 118°12'0 0.0
2018-Feb-22 18:30N 33°45' W 118°12'0 0.0
2018-Feb-22 18:01N 33°45' W 118°12'0 0.0
2018-Feb-21 22:12N 33°45' W 118°12'1 4.2
2018-Feb-21 22:00N 33°45' W 118°11'612.6
2018-Feb-21 21:30N 33°38' W 118°12'4 1.2
2018-Feb-21 18:26N 33°35' W 118°15'613.3
2018-Feb-21 18:00N 33°41' W 118°12'4 9.1
2018-Feb-21 17:30N 33°45' W 118°12'0 0.0
2018-Feb-21 17:00N 33°45' W 118°12'0 0.0
2018-Feb-21 02:16N 33°45' W 118°12'4 9.7
2018-Feb-21 01:51N 33°41' W 118°11'21 8.1
2018-Feb-20 23:13N 33°21' W 118°19'0 0.1
2018-Feb-20 22:53N 33°21' W 118°19'0 0.0
2018-Feb-20 17:10N 33°21' W 118°19'24 6.3
2018-Feb-20 13:20N 33°44' W 118°11'1 3.7
2018-Feb-20 13:00N 33°45' W 118°12'  
2018-Feb-16 23:10N 33°45' W 118°12'1 4.9
2018-Feb-16 23:00N 33°45' W 118°11'612.2
2018-Feb-16 22:30N 33°39' W 118°14'3 1.0
2018-Feb-16 19:38N 33°38' W 118°17'213.7
2018-Feb-16 19:30N 33°39' W 118°15'612.4
2018-Feb-16 19:00N 33°44' W 118°11'2 3.2
2018-Feb-16 18:30N 33°45' W 118°12'0 0.0
2018-Feb-14 22:07N 33°45' W 118°12'0 1.8
2018-Feb-14 22:00N 33°45' W 118°11'611.0
2018-Feb-14 21:30N 33°40' W 118°13'6 1.6
2018-Feb-14 18:06N 33°36' W 118°18'212.2
2018-Feb-14 17:56N 33°38' W 118°16'512.3
2018-Feb-14 17:30N 33°42' W 118°12'3 6.8
2018-Feb-14 17:00N 33°45' W 118°12'0 0.0
2018-Feb-14 16:30N 33°45' W 118°12'  
Track history (hours):
 
Tides and Currents Weather Stations Pressure Air Temp Water Temp Dewpoint Dewpoint Depression Visibility Wind Speed Wind Dir Waves Ship Positions

Catalina Duchess

Owner: CATALINA CLASSIC CRUISES, INC., SAN DIEGO, CA. More information available from US FCC via Universal Licensing System and Coast Guard Vessel Documentation Center.

Last reported at 2018-Feb-23 22:29 UTC. Time now 2018-Feb-25 04:08 UTC.
Position N 33°45' W 118°12'.

Length 31 m; draft 2.5 m.

Type: Ship. MMSI: 367110260.

Date/timePositionNaut miles runAvg speedWind from/ knotsBaromVisibWave heightAir tempDewpointWater temp
2018-Feb-23 22:29N 33°45' W 118°12'5 9.6
2018-Feb-23 22:00N 33°41' W 118°11'6 1.6
2018-Feb-23 18:20N 33°37' W 118°17'412.0
2018-Feb-23 18:00N 33°40' W 118°13'510.4
2018-Feb-23 17:30N 33°45' W 118°12'0 0.1
2018-Feb-23 17:00N 33°45' W 118°12'0 0.0
2018-Feb-23 16:30N 33°45' W 118°12'0 0.0
2018-Feb-22 19:28N 33°45' W 118°12'0 0.0
2018-Feb-22 19:01N 33°45' W 118°12'0 0.0
2018-Feb-22 18:30N 33°45' W 118°12'0 0.0
2018-Feb-22 18:01N 33°45' W 118°12'0 0.0
2018-Feb-21 22:12N 33°45' W 118°12'1 4.2
2018-Feb-21 22:00N 33°45' W 118°11'612.6
2018-Feb-21 21:30N 33°38' W 118°12'4 1.2
2018-Feb-21 18:26N 33°35' W 118°15'613.3
2018-Feb-21 18:00N 33°41' W 118°12'4 9.1
2018-Feb-21 17:30N 33°45' W 118°12'0 0.0
2018-Feb-21 17:00N 33°45' W 118°12'0 0.0
2018-Feb-21 02:16N 33°45' W 118°12'4 9.7
2018-Feb-21 01:51N 33°41' W 118°11'21 8.1
2018-Feb-20 23:13N 33°21' W 118°19'0 0.1
2018-Feb-20 22:53N 33°21' W 118°19'0 0.0
2018-Feb-20 17:10N 33°21' W 118°19'24 6.3
2018-Feb-20 13:20N 33°44' W 118°11'1 3.7
2018-Feb-20 13:00N 33°45' W 118°12'  
2018-Feb-16 23:10N 33°45' W 118°12'1 4.9
2018-Feb-16 23:00N 33°45' W 118°11'612.2
2018-Feb-16 22:30N 33°39' W 118°14'3 1.0
2018-Feb-16 19:38N 33°38' W 118°17'213.7
2018-Feb-16 19:30N 33°39' W 118°15'612.4
2018-Feb-16 19:00N 33°44' W 118°11'2 3.2
2018-Feb-16 18:30N 33°45' W 118°12'0 0.0
2018-Feb-14 22:07N 33°45' W 118°12'0 1.8
2018-Feb-14 22:00N 33°45' W 118°11'611.0
2018-Feb-14 21:30N 33°40' W 118°13'6 1.6
2018-Feb-14 18:06N 33°36' W 118°18'212.2
2018-Feb-14 17:56N 33°38' W 118°16'512.3
2018-Feb-14 17:30N 33°42' W 118°12'3 6.8
2018-Feb-14 17:00N 33°45' W 118°12'0 0.0
2018-Feb-14 16:30N 33°45' W 118°12'  

Dump ship's entire track history